createdAt,value
2023-05-04T00:01:20.884Z,10.10
2023-05-04T00:06:22.625Z,10.15
2023-05-04T00:11:25.954Z,10.13
2023-05-04T00:16:27.744Z,9.92
2023-05-04T00:21:29.495Z,9.78
2023-05-04T00:26:32.566Z,9.74
2023-05-04T00:31:34.669Z,9.71
2023-05-04T00:36:37.606Z,9.74
2023-05-04T00:41:41.069Z,9.55
2023-05-04T00:46:42.869Z,9.52
2023-05-04T00:51:44.604Z,9.54
2023-05-04T00:56:47.647Z,9.38
2023-05-04T01:01:49.530Z,9.32
2023-05-04T01:06:55.561Z,9.31
2023-05-04T01:12:01.176Z,9.49
2023-05-04T01:17:03.953Z,9.32
2023-05-04T01:22:07.172Z,9.18
2023-05-04T01:27:09.702Z,8.92
2023-05-04T01:32:11.903Z,8.88
2023-05-04T01:37:14.970Z,8.91
2023-05-04T01:42:16.702Z,8.91
2023-05-04T01:47:18.768Z,9.20
2023-05-04T01:52:21.799Z,9.12
2023-05-04T01:57:23.535Z,9.41
2023-05-04T02:02:25.633Z,9.43
2023-05-04T02:07:28.746Z,9.38
2023-05-04T02:12:30.551Z,9.30
2023-05-04T02:17:33.832Z,8.97
2023-05-04T02:22:36.891Z,8.81
2023-05-04T02:27:38.630Z,8.78
2023-05-04T02:32:41.061Z,8.90
2023-05-04T02:37:44.239Z,8.77
2023-05-04T02:42:45.961Z,8.75
2023-05-04T02:47:47.691Z,8.75
2023-05-04T02:52:50.747Z,8.68
2023-05-04T02:57:52.469Z,8.64
2023-05-04T03:02:54.186Z,8.83
2023-05-04T03:07:57.247Z,8.91
2023-05-04T03:13:03.768Z,8.90
2023-05-04T03:18:06.138Z,8.81
2023-05-04T03:23:09.705Z,9.04
2023-05-04T03:28:11.769Z,9.02
2023-05-04T03:33:13.633Z,8.82
2023-05-04T03:38:17.226Z,8.77
2023-05-04T03:43:19.034Z,8.65
2023-05-04T03:48:20.971Z,8.67
2023-05-04T03:53:25.466Z,8.75
2023-05-04T03:58:27.312Z,8.71
2023-05-04T04:03:29.335Z,8.61
2023-05-04T04:08:33.214Z,8.73
2023-05-04T04:13:35.007Z,8.80
2023-05-04T04:18:36.805Z,8.67
2023-05-04T04:23:39.864Z,8.49
2023-05-04T04:28:41.630Z,8.53
2023-05-04T04:33:43.785Z,8.72
2023-05-04T04:38:47.459Z,8.86
2023-05-04T04:43:49.224Z,9.01
2023-05-04T04:48:52.472Z,9.14
2023-05-04T04:53:55.502Z,9.17
2023-05-04T04:58:57.710Z,9.17
2023-05-04T05:03:59.410Z,9.28
2023-05-04T05:09:02.650Z,9.33
2023-05-04T05:14:04.371Z,9.60
2023-05-04T05:19:06.040Z,9.77
2023-05-04T05:24:09.115Z,9.95
2023-05-04T05:29:11.149Z,10.17
2023-05-04T05:34:12.858Z,10.39
2023-05-04T05:39:16.310Z,10.57
2023-05-04T05:44:18.028Z,10.86
2023-05-04T05:49:19.754Z,11.10
2023-05-04T05:54:26.149Z,11.36
2023-05-04T05:59:27.865Z,11.62
2023-05-04T06:04:29.569Z,11.80
2023-05-04T06:09:32.611Z,12.02
2023-05-04T06:14:34.367Z,12.18
2023-05-04T06:19:37.252Z,12.41
2023-05-04T06:24:40.322Z,12.70
2023-05-04T06:29:42.150Z,13.01
2023-05-04T06:34:43.835Z,13.40
2023-05-04T06:39:47.028Z,13.91
2023-05-04T06:44:48.751Z,14.20
2023-05-04T06:49:50.474Z,14.47
2023-05-04T06:54:53.553Z,14.99
2023-05-04T06:59:55.282Z,15.42
2023-05-04T07:04:57.412Z,15.85
2023-05-04T07:10:00.440Z,16.12
2023-05-04T07:15:02.180Z,16.88
2023-05-04T07:20:04.774Z,17.04
2023-05-04T07:25:08.640Z,17.34
2023-05-04T07:30:11.204Z,17.56
2023-05-04T07:35:13.197Z,18.14
2023-05-04T07:40:16.664Z,18.39
2023-05-04T07:45:18.567Z,19.57
2023-05-04T07:50:20.597Z,22.58
2023-05-04T07:55:24.672Z,25.47
2023-05-04T08:00:26.589Z,26.63
2023-05-04T08:05:28.276Z,27.02
2023-05-04T08:10:31.344Z,27.52
2023-05-04T08:15:33.052Z,27.87
2023-05-04T08:20:34.748Z,27.95
2023-05-04T08:25:37.775Z,27.52
2023-05-04T08:30:39.481Z,27.41
2023-05-04T08:35:41.250Z,27.02
2023-05-04T08:40:44.306Z,26.71
2023-05-04T08:45:46.102Z,27.11
2023-05-04T08:50:47.863Z,27.30
2023-05-04T08:55:50.926Z,26.58
2023-05-04T09:00:53.416Z,26.50
2023-05-04T09:05:55.304Z,26.58
2023-05-04T09:10:58.414Z,27.53
2023-05-04T09:16:00.278Z,28.47
2023-05-04T09:21:02.022Z,28.64
2023-05-04T09:26:05.035Z,29.14
2023-05-04T09:31:07.422Z,29.56
2023-05-04T09:36:14.158Z,30.01
2023-05-04T09:41:17.238Z,30.26
2023-05-04T09:46:19.172Z,30.33
2023-05-04T09:51:22.539Z,31.01
2023-05-04T09:56:33.312Z,30.63
2023-05-04T10:01:35.029Z,30.72
2023-05-04T10:06:37.646Z,31.13
2023-05-04T10:11:40.676Z,29.74
2023-05-04T10:16:46.927Z,29.48
2023-05-04T10:21:59.273Z,29.89
2023-05-04T10:27:05.536Z,30.44
2023-05-04T10:32:17.232Z,30.14
2023-05-04T10:37:19.440Z,30.24
2023-05-04T10:42:22.577Z,29.43
2023-05-04T10:47:27.941Z,28.66
2023-05-04T10:52:30.178Z,27.84
2023-05-04T10:57:33.214Z,27.22
2023-05-04T11:02:35.141Z,26.84
2023-05-04T11:07:38.164Z,26.12
2023-05-04T11:12:42.825Z,25.51
2023-05-04T11:17:45.159Z,25.28
2023-05-04T11:22:47.383Z,24.93
2023-05-04T11:27:50.486Z,24.57
2023-05-04T11:32:54.027Z,24.75
2023-05-04T11:37:55.818Z,24.84
2023-05-04T11:42:59.081Z,25.00
2023-05-04T11:48:00.995Z,24.79
2023-05-04T11:53:04.042Z,24.84
2023-05-04T11:58:08.024Z,24.92
2023-05-04T12:03:12.891Z,25.05
2023-05-04T12:08:22.434Z,25.12
2023-05-04T12:13:25.554Z,25.29
2023-05-04T12:18:29.685Z,26.05
2023-05-04T12:23:31.761Z,25.77
2023-05-04T12:28:35.695Z,24.01
2023-05-04T12:33:37.525Z,23.84
2023-05-04T12:38:39.227Z,24.70
2023-05-04T12:43:42.960Z,25.88
2023-05-04T12:48:44.642Z,25.22
2023-05-04T12:53:46.431Z,25.52
2023-05-04T12:58:49.445Z,25.54
2023-05-04T13:03:51.343Z,24.73
2023-05-04T13:08:53.127Z,25.23
2023-05-04T13:13:56.344Z,25.49
2023-05-04T13:18:58.082Z,25.86
2023-05-04T13:24:00.342Z,25.18
2023-05-04T13:29:04.369Z,24.75
2023-05-04T13:34:06.139Z,24.58
2023-05-04T13:39:07.973Z,24.56
2023-05-04T13:44:11.160Z,24.51
2023-05-04T13:49:12.859Z,24.51
2023-05-04T13:54:14.550Z,24.18
2023-05-04T13:59:17.583Z,24.42
2023-05-04T14:04:19.326Z,24.48
2023-05-04T14:09:21.125Z,24.23
2023-05-04T14:14:24.187Z,24.45
2023-05-04T14:19:26.923Z,24.56
2023-05-04T14:24:29.505Z,24.59
2023-05-04T14:29:33.512Z,24.45
2023-05-04T14:34:36.056Z,24.35
2023-05-04T14:39:39.332Z,24.25
2023-05-04T14:44:42.422Z,24.18
2023-05-04T14:49:44.120Z,24.23
2023-05-04T14:54:46.152Z,24.54
2023-05-04T14:59:49.163Z,24.59
2023-05-04T15:04:50.904Z,24.45
2023-05-04T15:09:52.646Z,24.17
2023-05-04T15:14:55.741Z,23.93
2023-05-04T15:19:57.491Z,23.82
2023-05-04T15:24:59.242Z,23.60
2023-05-04T15:30:02.269Z,23.17
2023-05-04T15:35:06.379Z,23.21
2023-05-04T15:40:09.368Z,23.19
2023-05-04T15:45:12.766Z,22.95
2023-05-04T15:50:14.507Z,22.86
2023-05-04T15:55:24.683Z,22.73
2023-05-04T16:00:28.721Z,22.71
2023-05-04T16:05:30.411Z,22.58
2023-05-04T16:10:33.151Z,22.40
2023-05-04T16:15:36.807Z,22.39
2023-05-04T16:20:38.559Z,22.29
2023-05-04T16:25:40.256Z,22.26
2023-05-04T16:30:45.596Z,22.15
2023-05-04T16:35:47.447Z,22.29
2023-05-04T16:40:49.183Z,22.19
2023-05-04T16:45:52.263Z,22.21
2023-05-04T16:50:54.022Z,22.31
2023-05-04T16:55:55.889Z,22.39
2023-05-04T17:00:58.945Z,22.23
2023-05-04T17:06:00.709Z,22.01
2023-05-04T17:11:02.407Z,21.92
2023-05-04T17:16:06.395Z,21.87
2023-05-04T17:21:08.145Z,21.84
2023-05-04T17:26:10.301Z,21.76
2023-05-04T17:31:13.406Z,21.62
2023-05-04T17:36:15.113Z,21.54
2023-05-04T17:41:17.085Z,21.26
2023-05-04T17:46:20.420Z,21.00
2023-05-04T17:51:22.955Z,21.04
2023-05-04T17:56:24.761Z,20.83
2023-05-04T18:01:28.021Z,20.78
2023-05-04T18:06:29.985Z,20.70
2023-05-04T18:11:31.789Z,20.61
2023-05-04T18:16:37.619Z,20.52
2023-05-04T18:21:39.497Z,20.40
2023-05-04T18:26:42.451Z,20.38
2023-05-04T18:31:45.589Z,20.35
2023-05-04T18:36:49.259Z,20.36
2023-05-04T18:41:51.124Z,20.25
2023-05-04T18:46:54.174Z,20.15
2023-05-04T18:51:55.915Z,20.05
2023-05-04T18:56:58.050Z,20.38
2023-05-04T19:02:01.793Z,20.23
2023-05-04T19:07:03.576Z,20.42
2023-05-04T19:12:05.756Z,20.39
2023-05-04T19:17:09.060Z,20.23
2023-05-04T19:22:13.096Z,19.73
2023-05-04T19:27:14.817Z,19.49
2023-05-04T19:32:24.283Z,19.35
2023-05-04T19:37:26.762Z,19.27
2023-05-04T19:42:28.601Z,19.10
2023-05-04T19:47:32.267Z,18.72
2023-05-04T19:52:36.167Z,18.51
2023-05-04T19:57:37.891Z,18.33
2023-05-04T20:02:41.363Z,18.11
2023-05-04T20:07:43.143Z,18.09
2023-05-04T20:12:44.914Z,18.04
2023-05-04T20:17:48.116Z,17.94
2023-05-04T20:22:51.895Z,17.69
2023-05-04T20:27:54.007Z,17.58
2023-05-04T20:32:57.236Z,17.42
2023-05-04T20:37:59.242Z,17.56
2023-05-04T20:43:01.596Z,17.50
2023-05-04T20:48:05.286Z,17.55
2023-05-04T20:53:07.326Z,17.45
2023-05-04T20:58:09.146Z,17.40
2023-05-04T21:03:12.294Z,17.42
2023-05-04T21:08:14.049Z,17.64
2023-05-04T21:13:15.938Z,17.56
2023-05-04T21:18:19.634Z,17.31
2023-05-04T21:23:21.483Z,17.12
2023-05-04T21:28:23.194Z,17.13
2023-05-04T21:33:26.285Z,17.13
2023-05-04T21:38:28.005Z,16.79
2023-05-04T21:43:29.735Z,16.79
2023-05-04T21:48:33.452Z,16.70
2023-05-04T21:53:35.297Z,16.76
2023-05-04T21:58:38.100Z,16.79
2023-05-04T22:03:41.280Z,16.76
2023-05-04T22:08:42.993Z,16.75
2023-05-04T22:13:44.691Z,16.69
2023-05-04T22:18:47.721Z,16.59
2023-05-04T22:23:49.453Z,16.67
2023-05-04T22:28:51.148Z,16.55
2023-05-04T22:33:54.222Z,16.67
2023-05-04T22:38:55.925Z,16.56
2023-05-04T22:43:57.689Z,16.29
2023-05-04T22:49:00.710Z,16.31
2023-05-04T22:54:02.460Z,16.31
2023-05-04T22:59:04.659Z,16.19
2023-05-04T23:04:07.764Z,16.06
2023-05-04T23:09:09.609Z,15.92
2023-05-04T23:14:11.603Z,15.75
2023-05-04T23:19:14.660Z,15.70
2023-05-04T23:24:16.393Z,15.53
2023-05-04T23:29:18.137Z,15.44
2023-05-04T23:34:21.377Z,15.35
2023-05-04T23:39:23.077Z,15.35
2023-05-04T23:44:24.845Z,15.35
2023-05-04T23:49:27.935Z,15.43
2023-05-04T23:54:29.643Z,15.56
2023-05-04T23:59:31.381Z,15.65
